createdAt,value
2022-09-15T00:00:01.209Z,13.53
2022-09-15T00:02:27.776Z,13.58
2022-09-15T00:04:54.573Z,13.63
2022-09-15T00:07:21.051Z,13.68
2022-09-15T00:09:47.697Z,13.71
2022-09-15T00:12:14.266Z,13.75
2022-09-15T00:14:41.308Z,13.81
2022-09-15T00:17:07.910Z,13.85
2022-09-15T00:19:34.540Z,13.91
2022-09-15T00:22:01.688Z,13.95
2022-09-15T00:24:28.206Z,13.99
2022-09-15T00:26:55.023Z,14.00
2022-09-15T00:29:21.721Z,14.05
2022-09-15T00:31:48.287Z,14.08
2022-09-15T00:34:14.843Z,14.12
2022-09-15T00:36:41.507Z,14.15
2022-09-15T00:39:08.105Z,14.20
2022-09-15T00:41:34.956Z,14.22
2022-09-15T00:44:21.998Z,14.26
2022-09-15T00:47:04.309Z,14.27
2022-09-15T00:49:40.425Z,14.29
2022-09-15T00:52:21.094Z,14.32
2022-09-15T00:54:56.246Z,14.35
2022-09-15T00:57:48.733Z,14.39
2022-09-15T01:00:20.843Z,14.41
2022-09-15T01:02:48.449Z,14.45
2022-09-15T01:05:18.902Z,14.47
2022-09-15T01:07:51.648Z,14.50
2022-09-15T01:10:24.393Z,14.50
2022-09-15T01:12:52.375Z,14.52
2022-09-15T01:15:20.077Z,14.53
2022-09-15T01:17:59.886Z,14.51
2022-09-15T01:20:55.252Z,14.51
2022-09-15T01:23:51.872Z,14.53
2022-09-15T01:26:56.955Z,14.53
2022-09-15T01:29:44.706Z,14.54
2022-09-15T01:32:47.980Z,14.54
2022-09-15T01:35:34.597Z,14.54
2022-09-15T01:38:06.098Z,14.56
2022-09-15T01:40:41.729Z,14.56
2022-09-15T01:43:10.353Z,14.56
2022-09-15T01:45:38.968Z,14.56
2022-09-15T01:48:08.755Z,14.58
2022-09-15T01:50:46.585Z,14.61
2022-09-15T01:53:17.971Z,14.60
2022-09-15T01:55:52.984Z,14.62
2022-09-15T01:58:20.495Z,14.61
2022-09-15T02:00:59.303Z,14.63
2022-09-15T02:03:35.208Z,14.62
2022-09-15T02:06:11.548Z,14.62
2022-09-15T02:08:56.383Z,14.62
2022-09-15T02:11:26.644Z,14.63
2022-09-15T02:14:11.415Z,14.60
2022-09-15T02:16:42.336Z,14.60
2022-09-15T02:19:15.000Z,14.57
2022-09-15T02:22:02.883Z,14.58
2022-09-15T02:24:35.527Z,14.57
2022-09-15T02:27:04.313Z,14.53
2022-09-15T02:29:34.619Z,14.49
2022-09-15T02:32:06.978Z,14.47
2022-09-15T02:34:40.334Z,14.46
2022-09-15T02:37:08.233Z,14.44
2022-09-15T02:39:39.880Z,14.42
2022-09-15T02:42:29.776Z,14.43
2022-09-15T02:44:57.410Z,14.43
2022-09-15T02:47:25.673Z,14.42
2022-09-15T02:49:52.843Z,14.43
2022-09-15T02:52:19.714Z,14.45
2022-09-15T02:54:46.411Z,14.46
2022-09-15T02:57:14.257Z,14.46
2022-09-15T02:59:59.331Z,14.48
2022-09-15T03:02:26.176Z,14.49
2022-09-15T03:04:53.027Z,14.50
2022-09-15T03:07:20.246Z,14.52
2022-09-15T03:09:47.226Z,14.53
2022-09-15T03:12:13.780Z,14.54
2022-09-15T03:14:40.365Z,14.55
2022-09-15T03:17:06.876Z,14.55
2022-09-15T03:19:33.386Z,14.55
2022-09-15T03:22:00.019Z,14.54
2022-09-15T03:24:26.653Z,14.55
2022-09-15T03:26:53.484Z,14.57
2022-09-15T03:29:20.228Z,14.56
2022-09-15T03:31:46.787Z,14.55
2022-09-15T03:34:13.297Z,14.54
2022-09-15T03:36:39.919Z,14.54
2022-09-15T03:39:06.794Z,14.52
2022-09-15T03:41:34.525Z,14.53
2022-09-15T03:44:01.136Z,14.54
2022-09-15T03:46:27.936Z,14.55
2022-09-15T03:48:54.572Z,14.55
2022-09-15T03:51:22.023Z,14.54
2022-09-15T03:53:48.568Z,14.54
2022-09-15T03:56:23.947Z,14.55
2022-09-15T03:58:51.977Z,14.56
2022-09-15T04:01:19.976Z,14.56
2022-09-15T04:03:50.880Z,14.55
2022-09-15T04:06:22.046Z,14.56
2022-09-15T04:08:53.178Z,14.58
2022-09-15T04:11:21.154Z,14.54
2022-09-15T04:13:48.634Z,14.55
2022-09-15T04:16:18.498Z,14.55
2022-09-15T04:18:45.414Z,14.56
2022-09-15T04:21:14.816Z,14.56
2022-09-15T04:23:42.755Z,14.56
2022-09-15T04:26:17.423Z,14.57
2022-09-15T04:28:43.948Z,14.56
2022-09-15T04:31:12.511Z,14.55
2022-09-15T04:33:40.644Z,14.55
2022-09-15T04:36:10.663Z,14.54
2022-09-15T04:38:37.549Z,14.55
2022-09-15T04:41:05.176Z,14.57
2022-09-15T04:43:32.543Z,14.57
2022-09-15T04:45:59.359Z,14.57
2022-09-15T04:48:26.546Z,14.57
2022-09-15T04:50:53.466Z,14.57
2022-09-15T04:53:20.312Z,14.57
2022-09-15T04:55:46.837Z,14.56
2022-09-15T04:58:13.376Z,14.56
2022-09-15T05:00:43.077Z,14.58
2022-09-15T05:03:13.998Z,14.60
2022-09-15T05:05:41.411Z,14.61
2022-09-15T05:08:08.238Z,14.61
2022-09-15T05:10:35.036Z,14.61
2022-09-15T05:13:01.521Z,14.61
2022-09-15T05:15:28.044Z,14.62
2022-09-15T05:17:54.571Z,14.62
2022-09-15T05:20:21.312Z,14.62
2022-09-15T05:22:47.922Z,14.64
2022-09-15T05:25:14.484Z,14.64
2022-09-15T05:27:41.217Z,14.66
2022-09-15T05:30:44.467Z,14.68
2022-09-15T05:33:11.284Z,14.69
2022-09-15T05:35:37.827Z,14.68
2022-09-15T05:38:04.410Z,14.70
2022-09-15T05:40:32.950Z,14.71
2022-09-15T05:42:59.476Z,14.73
2022-09-15T05:45:28.151Z,14.76
2022-09-15T05:47:54.635Z,14.77
2022-09-15T05:50:21.331Z,14.79
2022-09-15T05:52:51.734Z,14.81
2022-09-15T05:55:18.479Z,14.82
2022-09-15T05:57:45.079Z,14.86
2022-09-15T06:00:12.527Z,14.89
2022-09-15T06:02:39.262Z,14.90
2022-09-15T06:05:06.357Z,14.93
2022-09-15T06:07:32.860Z,14.98
2022-09-15T06:10:00.646Z,15.01
2022-09-15T06:12:27.367Z,15.04
2022-09-15T06:14:56.715Z,15.08
2022-09-15T06:17:23.349Z,15.12
2022-09-15T06:19:49.868Z,15.15
2022-09-15T06:22:17.590Z,15.19
2022-09-15T06:24:44.208Z,15.21
2022-09-15T06:27:10.828Z,15.23
2022-09-15T06:29:37.410Z,15.26
2022-09-15T06:32:05.179Z,15.24
2022-09-15T06:34:32.925Z,15.26
2022-09-15T06:36:59.871Z,15.30
2022-09-15T06:39:27.089Z,15.35
2022-09-15T06:42:02.187Z,15.41
2022-09-15T06:44:29.739Z,15.49
2022-09-15T06:46:56.430Z,15.56
2022-09-15T06:49:22.972Z,15.63
2022-09-15T06:51:56.480Z,15.69
2022-09-15T06:54:23.438Z,15.73
2022-09-15T06:56:49.948Z,15.82
2022-09-15T06:59:16.934Z,15.87
2022-09-15T07:01:43.541Z,15.92
2022-09-15T07:04:10.381Z,15.96
2022-09-15T07:06:39.304Z,16.00
2022-09-15T07:09:06.373Z,16.01
2022-09-15T07:11:33.550Z,16.02
2022-09-15T07:14:00.237Z,16.06
2022-09-15T07:16:26.871Z,16.08
2022-09-15T07:18:57.056Z,16.11
2022-09-15T07:21:24.812Z,16.14
2022-09-15T07:23:51.709Z,16.18
2022-09-15T07:26:20.350Z,16.21
2022-09-15T07:28:50.048Z,16.24
2022-09-15T07:31:19.373Z,16.26
2022-09-15T07:33:46.415Z,16.28
2022-09-15T07:36:13.614Z,16.33
2022-09-15T07:38:43.102Z,16.41
2022-09-15T07:41:13.092Z,16.48
2022-09-15T07:43:40.137Z,16.54
2022-09-15T07:46:07.105Z,16.65
2022-09-15T07:48:33.806Z,16.73
2022-09-15T07:51:00.371Z,16.76
2022-09-15T07:53:30.499Z,16.82
2022-09-15T07:55:57.282Z,16.91
2022-09-15T07:58:25.098Z,17.03
2022-09-15T08:00:52.220Z,17.16
2022-09-15T08:03:19.118Z,17.28
2022-09-15T08:05:46.233Z,17.36
2022-09-15T08:08:13.350Z,17.36
2022-09-15T08:10:41.781Z,17.37
2022-09-15T08:13:08.409Z,17.48
2022-09-15T08:15:38.749Z,17.61
2022-09-15T08:18:07.421Z,17.80
2022-09-15T08:20:33.950Z,17.99
2022-09-15T08:23:00.732Z,18.08
2022-09-15T08:25:27.443Z,18.04
2022-09-15T08:27:55.061Z,17.99
2022-09-15T08:30:22.681Z,17.95
2022-09-15T08:32:49.780Z,17.91
2022-09-15T08:35:17.360Z,17.90
2022-09-15T08:37:44.458Z,18.08
2022-09-15T08:40:23.680Z,18.42
2022-09-15T08:42:55.307Z,18.69
2022-09-15T08:45:28.002Z,18.78
2022-09-15T08:48:01.821Z,18.76
2022-09-15T08:50:44.774Z,18.56
2022-09-15T08:53:21.788Z,18.48
2022-09-15T08:55:54.878Z,18.50
2022-09-15T08:58:34.890Z,18.48
2022-09-15T09:01:11.734Z,18.42
2022-09-15T09:03:41.108Z,18.44
2022-09-15T09:06:24.200Z,18.41
2022-09-15T09:09:16.780Z,18.31
2022-09-15T09:12:01.585Z,18.49
2022-09-15T09:14:28.140Z,18.74
2022-09-15T09:17:19.266Z,18.97
2022-09-15T09:20:24.677Z,19.09
2022-09-15T09:22:54.193Z,19.16
2022-09-15T09:25:27.599Z,19.23
2022-09-15T09:27:56.398Z,19.30
2022-09-15T09:30:24.364Z,19.30
2022-09-15T09:33:13.197Z,19.26
2022-09-15T09:35:49.559Z,19.24
2022-09-15T09:38:21.129Z,19.22
2022-09-15T09:40:49.147Z,19.23
2022-09-15T09:43:16.203Z,19.16
2022-09-15T09:45:42.855Z,19.13
2022-09-15T09:48:23.546Z,19.19
2022-09-15T09:50:50.806Z,19.27
2022-09-15T09:53:26.444Z,19.41
2022-09-15T09:55:55.270Z,19.39
2022-09-15T09:58:25.453Z,19.47
2022-09-15T10:00:53.299Z,19.70
2022-09-15T10:03:21.564Z,19.81
2022-09-15T10:06:11.416Z,19.79
2022-09-15T10:08:53.083Z,19.70
2022-09-15T10:11:19.688Z,19.43
2022-09-15T10:13:52.876Z,19.14
2022-09-15T10:16:20.284Z,18.86
2022-09-15T10:18:53.987Z,18.54
2022-09-15T10:21:24.869Z,18.26
2022-09-15T10:23:51.629Z,18.11
2022-09-15T10:26:32.370Z,17.99
2022-09-15T10:29:15.932Z,18.04
2022-09-15T10:31:44.580Z,18.00
2022-09-15T10:34:30.569Z,18.12
2022-09-15T10:37:29.638Z,18.25
2022-09-15T10:40:00.611Z,18.45
2022-09-15T10:42:53.798Z,18.64
2022-09-15T10:45:38.230Z,18.85
2022-09-15T10:48:14.059Z,18.89
2022-09-15T10:50:55.997Z,18.94
2022-09-15T10:53:28.501Z,18.91
2022-09-15T10:56:34.239Z,18.95
2022-09-15T10:59:29.139Z,18.99
2022-09-15T11:01:59.802Z,19.01
2022-09-15T11:04:55.196Z,19.05
2022-09-15T11:07:30.546Z,19.16
2022-09-15T11:10:12.231Z,19.08
2022-09-15T11:12:56.324Z,19.12
2022-09-15T11:15:41.837Z,19.22
2022-09-15T11:18:27.994Z,19.31
2022-09-15T11:21:05.326Z,19.47
2022-09-15T11:23:34.876Z,19.52
2022-09-15T11:26:09.918Z,19.42
2022-09-15T11:28:58.953Z,19.32
2022-09-15T11:31:34.624Z,19.21
2022-09-15T11:34:14.995Z,19.13
2022-09-15T11:36:54.953Z,19.16
2022-09-15T11:39:30.652Z,19.13
2022-09-15T11:42:13.868Z,19.03
2022-09-15T11:44:43.526Z,18.90
2022-09-15T11:47:25.140Z,18.79
2022-09-15T11:50:18.273Z,18.74
2022-09-15T11:52:59.736Z,18.75
2022-09-15T11:55:37.196Z,18.76
2022-09-15T11:58:15.554Z,18.82
2022-09-15T12:00:53.047Z,18.97
2022-09-15T12:03:50.855Z,19.21
2022-09-15T12:06:45.779Z,19.50
2022-09-15T12:09:15.989Z,19.66
2022-09-15T12:11:45.629Z,19.75
2022-09-15T12:14:26.974Z,19.78
2022-09-15T12:16:54.125Z,19.70
2022-09-15T12:19:33.513Z,19.71
2022-09-15T12:22:18.103Z,19.69
2022-09-15T12:25:00.061Z,19.67
2022-09-15T12:27:27.901Z,19.72
2022-09-15T12:29:57.461Z,19.72
2022-09-15T12:32:27.761Z,19.67
2022-09-15T12:35:00.215Z,19.66
2022-09-15T12:37:41.620Z,19.73
2022-09-15T12:40:39.339Z,19.88
2022-09-15T12:43:12.806Z,20.04
2022-09-15T12:45:42.425Z,20.11
2022-09-15T12:48:23.265Z,20.07
2022-09-15T12:51:01.759Z,19.97
2022-09-15T12:56:25.078Z,19.81
2022-09-15T12:58:52.759Z,19.85
2022-09-15T13:01:19.623Z,19.79
2022-09-15T13:03:46.654Z,19.71
2022-09-15T13:06:23.353Z,19.27
2022-09-15T13:08:51.410Z,18.98
2022-09-15T13:11:34.664Z,18.64
2022-09-15T13:14:04.299Z,18.52
2022-09-15T13:16:52.699Z,18.45
2022-09-15T13:19:53.191Z,18.47
2022-09-15T13:22:41.319Z,18.62
2022-09-15T13:25:10.942Z,18.75
2022-09-15T13:27:45.174Z,18.80
2022-09-15T13:30:21.454Z,18.82
2022-09-15T13:33:12.754Z,18.91
2022-09-15T13:35:51.735Z,18.97
2022-09-15T13:38:24.037Z,18.93
2022-09-15T13:41:27.956Z,18.96
2022-09-15T13:44:06.449Z,19.06
2022-09-15T13:46:44.346Z,19.08
2022-09-15T13:49:19.694Z,19.15
2022-09-15T13:51:59.733Z,19.25
2022-09-15T13:54:26.579Z,19.40
2022-09-15T13:56:53.380Z,19.48
2022-09-15T13:59:28.468Z,19.51
2022-09-15T14:01:56.835Z,19.55
2022-09-15T14:04:26.926Z,19.50
2022-09-15T14:07:00.040Z,19.43
2022-09-15T14:09:34.874Z,19.39
2022-09-15T14:12:15.002Z,19.28
2022-09-15T14:14:43.699Z,19.13
2022-09-15T14:17:25.348Z,18.88
2022-09-15T14:19:54.701Z,18.65
2022-09-15T14:22:21.170Z,18.48
2022-09-15T14:24:50.982Z,18.41
2022-09-15T14:27:24.881Z,18.35
2022-09-15T14:30:00.269Z,18.31
2022-09-15T14:32:28.784Z,18.33
2022-09-15T14:34:59.721Z,18.34
2022-09-15T14:37:32.238Z,18.39
2022-09-15T14:40:01.641Z,18.47
2022-09-15T14:42:36.135Z,18.55
2022-09-15T14:48:01.604Z,18.52
2022-09-15T14:50:33.318Z,18.59
2022-09-15T14:53:06.587Z,18.71
2022-09-15T14:55:35.808Z,18.83
2022-09-15T14:58:15.006Z,18.90
2022-09-15T15:00:54.657Z,18.98
2022-09-15T15:03:44.564Z,19.09
2022-09-15T15:06:35.881Z,19.18
2022-09-15T15:09:32.728Z,19.06
2022-09-15T15:12:16.299Z,19.00
2022-09-15T15:14:42.872Z,18.93
2022-09-15T15:17:34.666Z,18.80
2022-09-15T15:20:19.242Z,18.57
2022-09-15T15:22:46.712Z,18.30
2022-09-15T15:25:27.694Z,18.04
2022-09-15T15:27:58.607Z,17.70
2022-09-15T15:30:32.533Z,17.60
2022-09-15T15:33:19.687Z,17.56
2022-09-15T15:35:47.087Z,17.62
2022-09-15T15:38:17.716Z,17.67
2022-09-15T15:40:45.779Z,17.76
2022-09-15T15:43:24.594Z,17.83
2022-09-15T15:45:58.459Z,17.92
2022-09-15T15:48:26.591Z,17.98
2022-09-15T15:50:53.312Z,18.03
2022-09-15T15:53:20.054Z,18.12
2022-09-15T15:55:47.084Z,18.20
2022-09-15T15:58:15.702Z,18.29
2022-09-15T16:00:51.707Z,18.38
2022-09-15T16:03:19.816Z,18.38
2022-09-15T16:05:52.399Z,18.36
2022-09-15T16:08:30.133Z,18.28
2022-09-15T16:10:57.649Z,18.24
2022-09-15T16:13:24.995Z,18.21
2022-09-15T16:15:56.843Z,18.17
2022-09-15T16:18:23.710Z,18.13
2022-09-15T16:20:50.390Z,18.01
2022-09-15T16:23:19.137Z,17.97
2022-09-15T16:25:51.439Z,17.88
2022-09-15T16:28:18.063Z,17.83
2022-09-15T16:30:44.985Z,17.82
2022-09-15T16:33:17.598Z,17.79
2022-09-15T16:35:55.079Z,17.81
2022-09-15T16:38:25.500Z,17.80
2022-09-15T16:40:52.415Z,17.75
2022-09-15T16:43:21.665Z,17.71
2022-09-15T16:45:50.515Z,17.69
2022-09-15T16:48:17.882Z,17.65
2022-09-15T16:50:56.044Z,17.62
2022-09-15T16:53:32.689Z,17.59
2022-09-15T16:56:00.580Z,17.58
2022-09-15T16:58:27.748Z,17.58
2022-09-15T17:00:54.408Z,17.52
2022-09-15T17:03:23.835Z,17.46
2022-09-15T17:05:52.426Z,17.38
2022-09-15T17:08:21.716Z,17.24
2022-09-15T17:10:48.947Z,17.20
2022-09-15T17:13:18.516Z,17.20
2022-09-15T17:15:46.801Z,17.15
2022-09-15T17:18:15.575Z,17.13
2022-09-15T17:20:47.172Z,17.05
2022-09-15T17:23:25.877Z,17.04
2022-09-15T17:25:53.727Z,16.94
2022-09-15T17:28:22.795Z,16.87
2022-09-15T17:30:51.477Z,16.80
2022-09-15T17:33:19.671Z,16.74
2022-09-15T17:35:47.073Z,16.70
2022-09-15T17:38:14.101Z,16.62
2022-09-15T17:40:41.072Z,16.53
2022-09-15T17:43:15.347Z,16.44
2022-09-15T17:45:42.192Z,16.43
2022-09-15T17:48:09.360Z,16.40
2022-09-15T17:50:39.139Z,16.38
2022-09-15T17:53:12.791Z,16.35
2022-09-15T17:55:40.102Z,16.33
2022-09-15T17:58:07.094Z,16.30
2022-09-15T18:00:39.184Z,16.29
2022-09-15T18:03:19.571Z,16.27
2022-09-15T18:05:46.189Z,16.25
2022-09-15T18:08:13.001Z,16.24
2022-09-15T18:10:39.701Z,16.21
2022-09-15T18:13:07.101Z,16.16
2022-09-15T18:15:35.180Z,16.10
2022-09-15T18:18:04.305Z,16.06
2022-09-15T18:20:33.178Z,15.99
2022-09-15T18:23:00.229Z,15.94
2022-09-15T18:25:32.443Z,15.85
2022-09-15T18:27:59.984Z,15.77
2022-09-15T18:30:29.487Z,15.72
2022-09-15T18:32:56.189Z,15.64
2022-09-15T18:35:23.078Z,15.61
2022-09-15T18:37:54.957Z,15.57
2022-09-15T18:40:21.773Z,15.52
2022-09-15T18:42:49.091Z,15.45
2022-09-15T18:45:17.442Z,15.43
2022-09-15T18:47:48.778Z,15.40
2022-09-15T18:50:17.335Z,15.38
2022-09-15T18:52:44.293Z,15.32
2022-09-15T18:55:16.562Z,15.31
2022-09-15T18:57:43.594Z,15.30
2022-09-15T19:00:16.970Z,15.29
2022-09-15T19:02:44.509Z,15.25
2022-09-15T19:05:12.214Z,15.25
2022-09-15T19:07:39.083Z,15.22
2022-09-15T19:10:07.398Z,15.19
2022-09-15T19:12:35.499Z,15.19
2022-09-15T19:15:10.568Z,15.17
2022-09-15T19:17:38.682Z,15.14
2022-09-15T19:20:09.771Z,15.14
2022-09-15T19:22:36.861Z,15.13
2022-09-15T19:25:05.377Z,15.11
2022-09-15T19:27:32.480Z,15.13
2022-09-15T19:29:59.005Z,15.13
2022-09-15T19:32:26.009Z,15.11
2022-09-15T19:34:52.965Z,15.15
2022-09-15T19:37:21.299Z,15.19
2022-09-15T19:39:48.573Z,15.18
2022-09-15T19:44:47.996Z,15.19
2022-09-15T19:47:15.657Z,15.15
2022-09-15T19:49:42.239Z,15.11
2022-09-15T19:52:10.086Z,15.10
2022-09-15T19:54:36.743Z,15.13
2022-09-15T19:57:03.949Z,15.13
2022-09-15T19:59:31.899Z,15.09
2022-09-15T20:01:59.851Z,15.07
2022-09-15T20:04:27.583Z,15.06
2022-09-15T20:06:54.279Z,15.05
2022-09-15T20:09:20.844Z,15.05
2022-09-15T20:11:48.489Z,15.05
2022-09-15T20:14:15.248Z,15.05
2022-09-15T20:16:41.902Z,15.03
2022-09-15T20:19:08.808Z,15.03
2022-09-15T20:21:52.527Z,15.00
2022-09-15T20:24:20.455Z,14.89
2022-09-15T20:26:47.187Z,14.85
2022-09-15T20:29:14.373Z,14.85
2022-09-15T20:31:41.079Z,14.83
2022-09-15T20:34:07.600Z,14.81
2022-09-15T20:36:36.909Z,14.85
2022-09-15T20:39:06.368Z,14.84
2022-09-15T20:41:33.136Z,14.85
2022-09-15T20:44:00.596Z,14.80
2022-09-15T20:46:29.373Z,14.72
2022-09-15T20:48:55.934Z,14.72
2022-09-15T20:51:26.067Z,14.73
2022-09-15T20:53:54.667Z,14.73
2022-09-15T20:56:25.450Z,14.72
2022-09-15T20:58:58.421Z,14.70
2022-09-15T21:01:27.452Z,14.68
2022-09-15T21:03:55.386Z,14.62
2022-09-15T21:06:24.501Z,14.58
2022-09-15T21:08:51.595Z,14.54
2022-09-15T21:11:20.299Z,14.54
2022-09-15T21:13:49.393Z,14.51
2022-09-15T21:16:22.674Z,14.40
2022-09-15T21:18:50.869Z,14.41
2022-09-15T21:21:22.798Z,14.35
2022-09-15T21:23:55.175Z,14.26
2022-09-15T21:26:24.259Z,14.20
2022-09-15T21:28:51.600Z,14.17
2022-09-15T21:31:21.266Z,14.15
2022-09-15T21:33:49.104Z,14.14
2022-09-15T21:36:27.025Z,14.11
2022-09-15T21:38:56.173Z,14.07
2022-09-15T21:41:26.041Z,14.06
2022-09-15T21:43:54.913Z,14.08
2022-09-15T21:46:24.059Z,14.05
2022-09-15T21:48:50.902Z,14.00
2022-09-15T21:51:23.478Z,13.96
2022-09-15T21:53:56.157Z,13.92
2022-09-15T21:56:25.342Z,13.84
2022-09-15T21:58:51.971Z,13.78
2022-09-15T22:01:23.822Z,13.77
2022-09-15T22:03:53.223Z,13.72
2022-09-15T22:06:22.268Z,13.71
2022-09-15T22:08:49.915Z,13.71
2022-09-15T22:11:16.527Z,13.69
2022-09-15T22:13:44.758Z,13.68
2022-09-15T22:16:22.974Z,13.72
2022-09-15T22:18:51.036Z,13.73
2022-09-15T22:21:25.878Z,13.73
2022-09-15T22:23:55.201Z,13.70
2022-09-15T22:26:26.252Z,13.70
2022-09-15T22:28:53.279Z,13.64
2022-09-15T22:31:21.170Z,13.63
2022-09-15T22:33:48.013Z,13.61
2022-09-15T22:36:17.427Z,13.61
2022-09-15T22:38:45.145Z,13.60
2022-09-15T22:41:14.619Z,13.58
2022-09-15T22:43:42.945Z,13.56
2022-09-15T22:46:12.315Z,13.53
2022-09-15T22:48:43.279Z,13.55
2022-09-15T22:51:11.027Z,13.56
2022-09-15T22:53:37.684Z,13.48
2022-09-15T22:56:08.447Z,13.52
2022-09-15T22:58:36.355Z,13.44
2022-09-15T23:01:09.615Z,13.45
2022-09-15T23:03:37.668Z,13.40
2022-09-15T23:06:05.444Z,13.40
2022-09-15T23:08:33.234Z,13.41
2022-09-15T23:11:08.798Z,13.41
2022-09-15T23:13:35.788Z,13.41
2022-09-15T23:16:02.459Z,13.41
2022-09-15T23:18:29.751Z,13.41
2022-09-15T23:21:05.192Z,13.41
2022-09-15T23:23:34.272Z,13.36
2022-09-15T23:26:01.419Z,13.38
2022-09-15T23:28:30.169Z,13.41
2022-09-15T23:30:57.818Z,13.43
2022-09-15T23:33:28.950Z,13.42
2022-09-15T23:35:55.983Z,13.44
2022-09-15T23:38:22.707Z,13.42
2022-09-15T23:40:50.584Z,13.44
2022-09-15T23:43:18.051Z,13.45
2022-09-15T23:45:45.814Z,13.44
2022-09-15T23:48:13.302Z,13.46
2022-09-15T23:50:40.964Z,13.47
2022-09-15T23:53:08.315Z,13.45
2022-09-15T23:55:35.402Z,13.42
2022-09-15T23:58:02.476Z,13.42
